createdAt,value
2023-01-17T00:01:15.423Z,2.50
2023-01-17T00:04:00.569Z,2.03
2023-01-17T00:06:45.678Z,1.38
2023-01-17T00:09:32.904Z,1.90
2023-01-17T00:12:02.291Z,2.95
2023-01-17T00:14:29.126Z,1.30
2023-01-17T00:16:55.645Z,1.38
2023-01-17T00:19:40.844Z,3.58
2023-01-17T00:22:30.218Z,3.25
2023-01-17T00:25:15.011Z,3.35
2023-01-17T00:27:41.510Z,3.05
2023-01-17T00:30:08.749Z,3.30
2023-01-17T00:32:35.195Z,3.35
2023-01-17T00:35:01.719Z,3.30
2023-01-17T00:37:28.187Z,3.50
2023-01-17T00:39:54.639Z,3.42
2023-01-17T00:42:21.100Z,3.30
2023-01-17T00:45:05.973Z,3.67
2023-01-17T00:47:53.086Z,3.45
2023-01-17T00:50:38.122Z,3.22
2023-01-17T00:53:23.901Z,3.70
2023-01-17T00:56:09.116Z,3.03
2023-01-17T00:58:53.999Z,2.25
2023-01-17T01:01:39.509Z,1.20
2023-01-17T01:04:24.732Z,1.15
2023-01-17T01:07:09.558Z,0.75
2023-01-17T01:09:54.326Z,1.20
2023-01-17T01:12:39.739Z,0.70
2023-01-17T01:15:25.497Z,0.70
2023-01-17T01:18:10.407Z,0.80
2023-01-17T01:20:55.191Z,0.70
2023-01-17T01:23:40.226Z,0.82
2023-01-17T01:26:25.075Z,0.63
2023-01-17T01:29:10.012Z,0.80
2023-01-17T01:31:54.707Z,0.70
2023-01-17T01:34:21.294Z,0.60
2023-01-17T01:36:48.007Z,0.52
2023-01-17T01:39:14.567Z,0.50
2023-01-17T01:41:41.335Z,0.52
2023-01-17T01:44:49.273Z,0.52
2023-01-17T01:47:38.546Z,0.47
2023-01-17T01:50:08.326Z,0.63
2023-01-17T01:52:37.089Z,0.45
2023-01-17T01:55:15.689Z,0.50
2023-01-17T01:57:46.254Z,0.40
2023-01-17T02:00:19.232Z,0.70
2023-01-17T02:02:49.716Z,0.43
2023-01-17T02:05:20.542Z,0.40
2023-01-17T02:08:33.272Z,0.40
2023-01-17T02:11:00.449Z,0.40
2023-01-17T02:13:28.390Z,0.20
2023-01-17T02:16:04.286Z,0.32
2023-01-17T02:18:43.775Z,0.50
2023-01-17T02:21:35.092Z,0.57
2023-01-17T02:24:32.417Z,0.30
2023-01-17T02:27:23.888Z,0.20
2023-01-17T02:30:30.554Z,0.35
2023-01-17T02:35:42.053Z,0.32
2023-01-17T02:38:16.806Z,0.20
2023-01-17T02:40:49.451Z,0.30
2023-01-17T02:43:19.420Z,0.20
2023-01-17T02:45:46.018Z,0.20
2023-01-17T02:48:16.873Z,0.10
2023-01-17T02:51:09.140Z,0.20
2023-01-17T02:54:18.014Z,0.10
2023-01-17T02:57:12.718Z,0.10
2023-01-17T03:00:15.488Z,0.00
2023-01-17T03:03:20.553Z,0.10
2023-01-17T03:05:58.174Z,0.00
2023-01-17T03:08:26.715Z,0.10
2023-01-17T03:10:53.797Z,0.00
2023-01-17T03:13:20.375Z,0.08
2023-01-17T03:15:47.348Z,0.82
2023-01-17T03:18:15.999Z,0.10
2023-01-17T03:20:42.880Z,0.10
2023-01-17T03:23:09.400Z,0.00
2023-01-17T03:25:35.938Z,0.00
2023-01-17T03:28:02.474Z,0.00
2023-01-17T03:30:29.068Z,0.10
2023-01-17T03:32:55.724Z,0.10
2023-01-17T03:35:22.331Z,0.00
2023-01-17T03:37:48.897Z,0.10
2023-01-17T03:40:15.406Z,0.03
2023-01-17T03:42:42.739Z,0.10
2023-01-17T03:45:09.723Z,0.10
2023-01-17T03:47:36.444Z,0.10
2023-01-17T03:50:03.768Z,0.10
2023-01-17T03:52:30.460Z,0.20
2023-01-17T03:54:57.116Z,0.20
2023-01-17T03:57:23.707Z,0.15
2023-01-17T03:59:50.292Z,0.10
2023-01-17T04:02:17.487Z,0.10
2023-01-17T04:04:44.113Z,0.10
2023-01-17T04:07:10.623Z,0.10
2023-01-17T04:09:37.216Z,0.20
2023-01-17T04:12:03.951Z,0.10
2023-01-17T04:14:30.577Z,0.30
2023-01-17T04:16:57.452Z,0.22
2023-01-17T04:19:24.120Z,0.20
2023-01-17T04:21:50.825Z,0.22
2023-01-17T04:24:18.115Z,0.10
2023-01-17T04:26:44.785Z,0.20
2023-01-17T04:29:11.388Z,0.20
2023-01-17T04:31:37.925Z,0.30
2023-01-17T04:34:04.472Z,0.13
2023-01-17T04:36:30.998Z,0.17
2023-01-17T04:38:57.537Z,0.28
2023-01-17T04:41:24.154Z,0.30
2023-01-17T04:43:50.681Z,0.40
2023-01-17T04:46:17.251Z,0.40
2023-01-17T04:48:43.820Z,0.30
2023-01-17T04:51:10.368Z,0.30
2023-01-17T04:53:36.988Z,0.30
2023-01-17T04:56:03.714Z,0.40
2023-01-17T04:58:30.943Z,0.28
2023-01-17T05:01:05.429Z,0.30
2023-01-17T05:03:32.572Z,0.25
2023-01-17T05:05:59.880Z,0.20
2023-01-17T05:08:26.609Z,0.40
2023-01-17T05:10:53.156Z,0.30
2023-01-17T05:13:20.095Z,0.20
2023-01-17T05:15:47.044Z,0.30
2023-01-17T05:18:16.013Z,0.50
2023-01-17T05:20:43.017Z,0.30
2023-01-17T05:23:10.544Z,0.40
2023-01-17T05:25:37.124Z,0.30
2023-01-17T05:28:04.187Z,0.30
2023-01-17T05:30:32.199Z,0.38
2023-01-17T05:32:59.300Z,0.70
2023-01-17T05:35:32.744Z,0.15
2023-01-17T05:37:59.392Z,0.22
2023-01-17T05:40:28.616Z,0.40
2023-01-17T05:42:57.595Z,0.30
2023-01-17T05:45:26.503Z,0.30
2023-01-17T05:47:54.436Z,0.40
2023-01-17T05:50:30.342Z,0.30
2023-01-17T05:55:27.089Z,0.60
2023-01-17T05:57:54.907Z,0.40
2023-01-17T06:00:22.152Z,0.45
2023-01-17T06:02:49.679Z,0.10
2023-01-17T06:05:16.946Z,0.20
2023-01-17T06:07:45.251Z,0.20
2023-01-17T06:10:14.398Z,0.20
2023-01-17T06:12:42.264Z,0.30
2023-01-17T06:15:09.939Z,0.40
2023-01-17T06:17:36.924Z,0.28
2023-01-17T06:20:05.273Z,0.20
2023-01-17T06:22:32.321Z,0.20
2023-01-17T06:24:58.892Z,0.30
2023-01-17T06:27:25.957Z,0.35
2023-01-17T06:29:52.488Z,0.35
2023-01-17T06:32:19.058Z,0.40
2023-01-17T06:34:45.634Z,0.50
2023-01-17T06:37:12.146Z,0.47
2023-01-17T06:39:38.659Z,0.68
2023-01-17T06:42:05.234Z,0.52
2023-01-17T06:44:31.757Z,0.50
2023-01-17T06:46:58.523Z,0.40
2023-01-17T06:49:25.343Z,0.40
2023-01-17T06:51:51.986Z,0.40
2023-01-17T06:54:19.358Z,0.40
2023-01-17T06:56:45.869Z,0.45
2023-01-17T06:59:12.461Z,0.60
2023-01-17T07:01:39.098Z,0.40
2023-01-17T07:04:05.747Z,0.43
2023-01-17T07:06:32.320Z,0.40
2023-01-17T07:08:59.162Z,0.35
2023-01-17T07:11:27.368Z,0.55
2023-01-17T07:13:54.211Z,0.77
2023-01-17T07:16:21.055Z,0.47
2023-01-17T07:18:47.607Z,0.57
2023-01-17T07:21:15.237Z,0.30
2023-01-17T07:23:42.129Z,0.45
2023-01-17T07:26:09.034Z,0.50
2023-01-17T07:28:35.670Z,0.60
2023-01-17T07:31:08.012Z,0.65
2023-01-17T07:33:34.833Z,0.38
2023-01-17T07:36:09.378Z,0.32
2023-01-17T07:38:36.343Z,0.20
2023-01-17T07:41:02.963Z,0.63
2023-01-17T07:43:29.486Z,0.43
2023-01-17T07:45:56.468Z,0.43
2023-01-17T07:48:24.882Z,0.35
2023-01-17T07:50:56.365Z,0.28
2023-01-17T07:53:27.949Z,0.30
2023-01-17T07:55:54.940Z,0.30
2023-01-17T07:58:22.159Z,0.40
2023-01-17T08:00:48.875Z,0.60
2023-01-17T08:03:17.711Z,0.43
2023-01-17T08:05:53.533Z,0.55
2023-01-17T08:10:46.492Z,0.40
2023-01-17T08:13:13.038Z,0.50
2023-01-17T08:15:39.595Z,0.57
2023-01-17T08:18:06.567Z,0.60
2023-01-17T08:20:33.154Z,0.35
2023-01-17T08:22:59.813Z,0.70
2023-01-17T08:25:27.016Z,0.17
2023-01-17T08:27:57.965Z,0.60
2023-01-17T08:30:25.627Z,0.55
2023-01-17T08:32:52.279Z,0.68
2023-01-17T08:35:20.184Z,0.85
2023-01-17T08:37:54.916Z,0.52
2023-01-17T08:40:22.615Z,2.20
2023-01-17T08:42:57.485Z,0.25
2023-01-17T08:45:24.795Z,0.35
2023-01-17T08:47:51.479Z,0.45
2023-01-17T08:50:20.817Z,0.38
2023-01-17T08:52:48.825Z,0.50
2023-01-17T08:55:18.416Z,0.57
2023-01-17T08:57:44.951Z,0.73
2023-01-17T09:00:11.961Z,0.60
2023-01-17T09:02:38.617Z,0.50
2023-01-17T09:05:05.688Z,0.63
2023-01-17T09:07:32.493Z,0.57
2023-01-17T09:09:59.175Z,0.60
2023-01-17T09:12:26.243Z,1.00
2023-01-17T09:14:52.847Z,0.30
2023-01-17T09:17:19.504Z,0.63
2023-01-17T09:19:48.975Z,0.55
2023-01-17T09:22:15.776Z,0.73
2023-01-17T09:24:42.440Z,0.50
2023-01-17T09:27:09.033Z,0.38
2023-01-17T09:29:35.710Z,0.50
2023-01-17T09:32:02.311Z,0.50
2023-01-17T09:34:30.469Z,0.55
2023-01-17T09:36:57.359Z,0.50
2023-01-17T09:39:24.074Z,0.50
2023-01-17T09:42:09.057Z,0.45
2023-01-17T09:44:46.373Z,0.75
2023-01-17T09:47:18.527Z,0.52
2023-01-17T09:49:46.992Z,0.70
2023-01-17T09:52:21.055Z,0.63
2023-01-17T09:54:49.539Z,0.60
2023-01-17T09:57:28.222Z,0.50
2023-01-17T10:00:03.483Z,0.50
2023-01-17T10:02:50.557Z,0.52
2023-01-17T10:05:26.606Z,0.40
2023-01-17T10:10:52.149Z,0.35
2023-01-17T10:13:34.765Z,0.50
2023-01-17T10:16:19.993Z,0.28
2023-01-17T10:19:03.817Z,0.60
2023-01-17T10:21:59.181Z,0.35
2023-01-17T10:24:44.631Z,0.52
2023-01-17T10:27:21.272Z,0.60
2023-01-17T10:29:50.916Z,0.43
2023-01-17T10:32:19.513Z,0.20
2023-01-17T10:34:52.229Z,0.40
2023-01-17T10:37:40.949Z,0.40
2023-01-17T10:40:16.737Z,0.50
2023-01-17T10:42:57.783Z,0.57
2023-01-17T10:45:29.068Z,0.90
2023-01-17T10:48:15.647Z,0.45
2023-01-17T10:50:59.532Z,0.70
2023-01-17T10:54:02.026Z,0.45
2023-01-17T10:56:30.643Z,0.50
2023-01-17T10:59:18.040Z,0.40
2023-01-17T11:01:44.840Z,0.52
2023-01-17T11:04:19.721Z,0.50
2023-01-17T11:06:57.751Z,0.50
2023-01-17T11:09:38.606Z,0.68
2023-01-17T11:12:05.516Z,0.50
2023-01-17T11:14:38.418Z,0.30
2023-01-17T11:17:07.037Z,0.70
2023-01-17T11:19:36.388Z,0.30
2023-01-17T11:22:06.276Z,0.47
2023-01-17T11:24:40.740Z,0.73
2023-01-17T11:27:22.492Z,0.40
2023-01-17T11:30:01.690Z,0.35
2023-01-17T11:32:31.978Z,0.43
2023-01-17T11:35:15.329Z,0.28
2023-01-17T11:38:03.363Z,0.45
2023-01-17T11:40:43.478Z,0.40
2023-01-17T11:43:14.296Z,0.70
2023-01-17T11:45:41.513Z,0.55
2023-01-17T11:48:08.108Z,0.50
2023-01-17T11:50:38.896Z,0.45
2023-01-17T11:53:28.029Z,0.50
2023-01-17T11:56:04.062Z,0.47
2023-01-17T11:58:33.776Z,0.45
2023-01-17T12:04:00.835Z,0.68
2023-01-17T12:06:56.914Z,0.30
2023-01-17T12:09:38.133Z,0.50
2023-01-17T12:12:29.285Z,0.10
2023-01-17T12:15:16.728Z,0.60
2023-01-17T12:18:20.931Z,0.63
2023-01-17T12:21:08.205Z,0.40
2023-01-17T12:23:55.916Z,0.30
2023-01-17T12:26:36.235Z,0.30
2023-01-17T12:29:20.615Z,0.95
2023-01-17T12:32:16.443Z,0.70
2023-01-17T12:34:47.122Z,0.60
2023-01-17T12:37:26.595Z,0.60
2023-01-17T12:40:32.792Z,0.20
2023-01-17T12:43:12.466Z,1.40
2023-01-17T12:45:43.378Z,0.52
2023-01-17T12:48:17.340Z,0.60
2023-01-17T12:50:49.088Z,0.65
2023-01-17T12:53:24.166Z,0.70
2023-01-17T12:56:22.624Z,0.40
2023-01-17T12:58:54.714Z,0.82
2023-01-17T13:01:30.748Z,0.70
2023-01-17T13:04:06.532Z,0.47
2023-01-17T13:07:10.441Z,0.57
2023-01-17T13:09:48.304Z,0.35
2023-01-17T13:12:18.134Z,0.90
2023-01-17T13:17:29.597Z,0.45
2023-01-17T13:20:01.821Z,0.55
2023-01-17T13:22:29.879Z,1.08
2023-01-17T13:25:08.128Z,0.22
2023-01-17T13:27:44.027Z,0.70
2023-01-17T13:33:15.355Z,0.88
2023-01-17T13:35:44.545Z,0.40
2023-01-17T13:38:29.351Z,0.95
2023-01-17T13:41:38.060Z,0.70
2023-01-17T13:44:24.583Z,0.50
2023-01-17T13:47:04.206Z,0.40
2023-01-17T13:49:34.240Z,0.30
2023-01-17T13:52:12.157Z,0.90
2023-01-17T13:55:00.686Z,1.00
2023-01-17T13:57:29.929Z,0.93
2023-01-17T13:59:58.699Z,0.95
2023-01-17T14:02:38.954Z,0.70
2023-01-17T14:05:32.144Z,0.50
2023-01-17T14:08:02.314Z,0.70
2023-01-17T14:10:48.629Z,0.70
2023-01-17T14:13:38.447Z,0.93
2023-01-17T14:16:29.830Z,0.63
2023-01-17T14:18:56.862Z,0.40
2023-01-17T14:21:32.149Z,0.85
2023-01-17T14:24:11.049Z,1.00
2023-01-17T14:26:42.527Z,0.80
2023-01-17T14:29:43.882Z,0.70
2023-01-17T14:32:21.797Z,0.80
2023-01-17T14:34:51.567Z,0.88
2023-01-17T14:37:33.120Z,0.60
2023-01-17T14:40:01.125Z,0.47
2023-01-17T14:42:30.644Z,0.52
2023-01-17T14:45:05.656Z,0.70
2023-01-17T14:47:35.858Z,0.63
2023-01-17T14:50:17.712Z,0.80
2023-01-17T14:52:45.068Z,0.32
2023-01-17T14:55:20.654Z,0.70
2023-01-17T14:57:54.859Z,0.75
2023-01-17T15:00:23.489Z,0.77
2023-01-17T15:02:50.808Z,0.93
2023-01-17T15:05:20.374Z,0.85
2023-01-17T15:07:52.984Z,1.00
2023-01-17T15:10:26.264Z,0.80
2023-01-17T15:12:53.161Z,0.80
2023-01-17T15:15:32.200Z,0.63
2023-01-17T15:18:13.811Z,0.95
2023-01-17T15:20:50.258Z,0.70
2023-01-17T15:23:22.113Z,1.00
2023-01-17T15:25:50.557Z,1.20
2023-01-17T15:28:18.257Z,1.10
2023-01-17T15:31:11.021Z,0.80
2023-01-17T15:33:40.908Z,0.90
2023-01-17T15:36:32.527Z,1.08
2023-01-17T15:39:06.323Z,1.20
2023-01-17T15:41:39.602Z,1.60
2023-01-17T15:44:08.170Z,1.45
2023-01-17T15:46:43.072Z,1.40
2023-01-17T15:49:33.626Z,2.00
2023-01-17T15:52:04.910Z,1.45
2023-01-17T15:54:50.662Z,1.70
2023-01-17T15:57:23.647Z,1.60
2023-01-17T16:00:15.811Z,0.93
2023-01-17T16:02:49.241Z,1.30
2023-01-17T16:05:22.598Z,1.35
2023-01-17T16:08:09.425Z,1.63
2023-01-17T16:10:37.811Z,1.40
2023-01-17T16:13:06.277Z,1.10
2023-01-17T16:15:35.559Z,1.73
2023-01-17T16:18:06.854Z,1.23
2023-01-17T16:20:41.752Z,1.40
2023-01-17T16:23:10.443Z,1.15
2023-01-17T16:25:37.298Z,1.80
2023-01-17T16:28:04.801Z,1.85
2023-01-17T16:30:32.349Z,2.00
2023-01-17T16:32:59.329Z,3.33
2023-01-17T16:35:31.812Z,3.00
2023-01-17T16:38:04.328Z,3.25
2023-01-17T16:40:33.628Z,2.95
2023-01-17T16:43:00.873Z,2.83
2023-01-17T16:45:27.938Z,2.75
2023-01-17T16:47:54.829Z,2.70
2023-01-17T16:50:25.387Z,2.30
2023-01-17T16:52:53.547Z,2.47
2023-01-17T16:55:22.651Z,2.65
2023-01-17T16:57:51.243Z,2.45
2023-01-17T17:00:18.519Z,3.42
2023-01-17T17:02:45.163Z,3.42
2023-01-17T17:05:11.828Z,2.97
2023-01-17T17:07:46.418Z,3.00
2023-01-17T17:10:15.413Z,3.00
2023-01-17T17:12:42.736Z,3.35
2023-01-17T17:15:10.650Z,3.95
2023-01-17T17:17:38.643Z,3.95
2023-01-17T17:20:06.629Z,4.50
2023-01-17T17:22:33.323Z,4.22
2023-01-17T17:25:00.066Z,4.25
2023-01-17T17:27:27.873Z,5.13
2023-01-17T17:29:54.700Z,4.95
2023-01-17T17:32:21.448Z,3.92
2023-01-17T17:34:48.161Z,4.78
2023-01-17T17:37:16.090Z,4.57
2023-01-17T17:39:43.012Z,4.63
2023-01-17T17:42:09.622Z,5.03
2023-01-17T17:44:36.288Z,5.10
2023-01-17T17:47:03.985Z,5.03
2023-01-17T17:49:30.921Z,4.38
2023-01-17T17:52:07.250Z,4.45
2023-01-17T17:54:34.403Z,4.30
2023-01-17T17:57:01.108Z,5.22
2023-01-17T17:59:27.662Z,3.15
2023-01-17T18:01:54.323Z,4.65
2023-01-17T18:04:22.148Z,6.25
2023-01-17T18:06:48.714Z,5.72
2023-01-17T18:09:15.371Z,7.18
2023-01-17T18:11:43.539Z,5.05
2023-01-17T18:14:14.413Z,6.65
2023-01-17T18:16:44.817Z,6.65
2023-01-17T18:19:14.471Z,7.40
2023-01-17T18:21:41.211Z,7.72
2023-01-17T18:24:13.555Z,7.97
2023-01-17T18:26:50.880Z,8.25
2023-01-17T18:29:19.569Z,6.88
2023-01-17T18:31:47.433Z,7.45
2023-01-17T18:34:17.074Z,7.95
2023-01-17T18:36:44.210Z,9.10
2023-01-17T18:39:33.405Z,8.73
2023-01-17T18:42:00.380Z,8.43
2023-01-17T18:44:27.548Z,9.43
2023-01-17T18:46:54.826Z,8.80
2023-01-17T18:49:24.052Z,9.25
2023-01-17T18:51:51.496Z,10.05
2023-01-17T18:54:19.949Z,9.90
2023-01-17T18:56:46.916Z,8.63
2023-01-17T18:59:16.114Z,8.52
2023-01-17T19:01:43.732Z,8.85
2023-01-17T19:04:12.158Z,8.48
2023-01-17T19:06:43.902Z,7.78
2023-01-17T19:09:12.390Z,8.13
2023-01-17T19:11:39.546Z,7.63
2023-01-17T19:14:07.262Z,8.23
2023-01-17T19:16:39.005Z,8.90
2023-01-17T19:19:08.543Z,8.57
2023-01-17T19:21:35.449Z,9.05
2023-01-17T19:24:02.261Z,8.93
2023-01-17T19:26:30.100Z,9.43
2023-01-17T19:29:03.711Z,8.93
2023-01-17T19:31:32.429Z,9.55
2023-01-17T19:33:59.896Z,9.43
2023-01-17T19:36:31.030Z,9.77
2023-01-17T19:39:06.288Z,8.82
2023-01-17T19:41:41.008Z,7.60
2023-01-17T19:44:09.860Z,8.48
2023-01-17T19:46:37.051Z,8.55
2023-01-17T19:49:06.335Z,9.18
2023-01-17T19:51:33.053Z,8.82
2023-01-17T19:54:04.109Z,8.80
2023-01-17T19:56:31.018Z,7.97
2023-01-17T19:59:01.144Z,8.57
2023-01-17T20:01:30.618Z,8.90
2023-01-17T20:03:58.449Z,8.57
2023-01-17T20:06:28.875Z,6.63
2023-01-17T20:08:56.286Z,7.63
2023-01-17T20:11:24.862Z,7.07
2023-01-17T20:13:54.125Z,6.55
2023-01-17T20:16:21.519Z,7.10
2023-01-17T20:18:48.306Z,8.80
2023-01-17T20:21:20.802Z,8.07
2023-01-17T20:23:48.765Z,7.07
2023-01-17T20:26:18.548Z,7.88
2023-01-17T20:28:49.664Z,7.38
2023-01-17T20:31:20.015Z,8.57
2023-01-17T20:33:47.715Z,7.45
2023-01-17T20:36:16.639Z,7.03
2023-01-17T20:38:44.056Z,8.77
2023-01-17T20:41:17.539Z,8.80
2023-01-17T20:43:46.757Z,7.43
2023-01-17T20:46:14.084Z,7.97
2023-01-17T20:48:45.545Z,8.55
2023-01-17T20:51:12.863Z,8.07
2023-01-17T20:53:41.610Z,8.85
2023-01-17T20:56:15.035Z,7.95
2023-01-17T20:58:42.576Z,8.93
2023-01-17T21:01:11.002Z,8.85
2023-01-17T21:03:38.830Z,7.80
2023-01-17T21:06:09.248Z,8.40
2023-01-17T21:08:38.469Z,7.53
2023-01-17T21:11:07.415Z,7.90
2023-01-17T21:13:34.084Z,8.82
2023-01-17T21:16:01.551Z,8.60
2023-01-17T21:18:31.841Z,8.25
2023-01-17T21:21:07.971Z,8.30
2023-01-17T21:26:06.464Z,8.15
2023-01-17T21:28:35.645Z,7.97
2023-01-17T21:31:18.106Z,8.20
2023-01-17T21:33:45.078Z,8.05
2023-01-17T21:36:11.924Z,9.07
2023-01-17T21:38:38.991Z,7.85
2023-01-17T21:41:05.733Z,8.13
2023-01-17T21:43:32.261Z,7.53
2023-01-17T21:46:03.302Z,7.55
2023-01-17T21:48:29.992Z,6.38
2023-01-17T21:50:56.583Z,6.47
2023-01-17T21:53:23.142Z,8.05
2023-01-17T21:56:08.559Z,7.47
2023-01-17T21:58:44.229Z,7.95
2023-01-17T22:01:18.193Z,7.53
2023-01-17T22:03:49.050Z,8.80
2023-01-17T22:06:16.144Z,8.15
2023-01-17T22:08:43.121Z,8.25
2023-01-17T22:11:18.307Z,8.82
2023-01-17T22:13:45.580Z,8.57
2023-01-17T22:16:18.025Z,8.48
2023-01-17T22:18:45.502Z,8.35
2023-01-17T22:21:16.963Z,7.68
2023-01-17T22:23:50.609Z,7.55
2023-01-17T22:26:17.794Z,7.68
2023-01-17T22:28:44.706Z,7.90
2023-01-17T22:31:14.038Z,7.35
2023-01-17T22:33:43.272Z,7.78
2023-01-17T22:36:13.665Z,8.00
2023-01-17T22:38:41.801Z,7.93
2023-01-17T22:41:13.135Z,7.05
2023-01-17T22:43:42.497Z,6.65
2023-01-17T22:46:11.455Z,7.10
2023-01-17T22:48:39.248Z,7.85
2023-01-17T22:51:08.916Z,7.30
2023-01-17T22:53:40.435Z,7.20
2023-01-17T22:56:09.429Z,8.35
2023-01-17T22:58:36.112Z,7.35
2023-01-17T23:01:11.519Z,7.80
2023-01-17T23:03:40.771Z,7.50
2023-01-17T23:06:28.840Z,8.05
2023-01-17T23:08:57.564Z,6.88
2023-01-17T23:11:45.047Z,6.50
2023-01-17T23:14:17.650Z,6.75
2023-01-17T23:17:08.686Z,6.93
2023-01-17T23:19:49.491Z,6.78
2023-01-17T23:22:21.827Z,6.70
2023-01-17T23:25:02.799Z,6.40
2023-01-17T23:28:05.789Z,6.95
2023-01-17T23:30:35.735Z,6.22
2023-01-17T23:33:05.084Z,6.78
2023-01-17T23:35:34.108Z,6.57
2023-01-17T23:38:19.306Z,6.88
2023-01-17T23:41:09.249Z,6.95
2023-01-17T23:43:37.182Z,6.78
2023-01-17T23:46:04.865Z,6.65
2023-01-17T23:48:31.573Z,7.15
2023-01-17T23:51:00.725Z,7.15
2023-01-17T23:53:28.130Z,7.00
2023-01-17T23:55:59.665Z,6.88
2023-01-17T23:58:27.945Z,6.50
